createdAt,value
2019-04-05T00:01:50.076Z,16.12
2019-04-05T00:04:20.813Z,17.70
2019-04-05T00:06:51.408Z,19.52
2019-04-05T00:09:21.909Z,17.70
2019-04-05T00:11:52.436Z,18.23
2019-04-05T00:14:22.939Z,18.87
2019-04-05T00:16:53.761Z,16.40
2019-04-05T00:19:24.303Z,16.37
2019-04-05T00:21:57.167Z,14.40
2019-04-05T00:24:27.628Z,15.00
2019-04-05T00:26:58.135Z,15.43
2019-04-05T00:29:28.583Z,14.63
2019-04-05T00:31:59.057Z,13.58
2019-04-05T00:34:29.552Z,13.40
2019-04-05T00:37:00.029Z,14.30
2019-04-05T00:39:30.493Z,12.58
2019-04-05T00:42:01.008Z,14.55
2019-04-05T00:44:31.445Z,13.38
2019-04-05T00:47:02.001Z,15.15
2019-04-05T00:49:32.847Z,13.55
2019-04-05T00:52:03.306Z,12.95
2019-04-05T00:54:33.785Z,13.95
2019-04-05T00:57:04.497Z,14.07
2019-04-05T00:59:34.990Z,14.40
2019-04-05T01:02:05.728Z,14.73
2019-04-05T01:04:36.821Z,11.73
2019-04-05T01:07:07.294Z,14.13
2019-04-05T01:09:37.884Z,12.83
2019-04-05T01:12:08.422Z,14.53
2019-04-05T01:14:42.066Z,12.40
2019-04-05T01:17:24.158Z,13.93
2019-04-05T01:19:46.509Z,13.90
2019-04-05T01:22:17.729Z,15.53
2019-04-05T01:24:48.185Z,13.90
2019-04-05T01:27:19.548Z,14.05
2019-04-05T01:29:50.094Z,13.90
2019-04-05T01:32:20.568Z,13.10
2019-04-05T01:34:51.026Z,14.00
2019-04-05T01:37:21.999Z,13.10
2019-04-05T01:39:52.456Z,16.57
2019-04-05T01:42:23.501Z,13.93
2019-04-05T01:44:54.818Z,13.28
2019-04-05T01:47:25.305Z,12.73
2019-04-05T01:49:56.069Z,12.95
2019-04-05T01:52:26.601Z,14.73
2019-04-05T01:54:57.453Z,15.83
2019-04-05T01:57:28.241Z,16.93
2019-04-05T01:59:58.716Z,19.82
2019-04-05T02:02:29.183Z,24.25
2019-04-05T02:04:59.705Z,23.77
2019-04-05T02:07:33.207Z,23.67
2019-04-05T02:10:04.040Z,26.95
2019-04-05T02:12:34.899Z,26.70
2019-04-05T02:15:08.355Z,29.07
2019-04-05T02:17:38.868Z,28.77
2019-04-05T02:20:09.870Z,24.70
2019-04-05T02:22:40.370Z,25.55
2019-04-05T02:25:11.283Z,22.52
2019-04-05T02:27:42.130Z,21.68
2019-04-05T02:30:12.626Z,23.98
2019-04-05T02:32:43.170Z,23.92
2019-04-05T02:35:13.739Z,23.67
2019-04-05T02:37:44.204Z,21.90
2019-04-05T02:40:16.343Z,25.83
2019-04-05T02:42:50.017Z,22.45
2019-04-05T02:45:20.781Z,22.27
2019-04-05T02:47:54.932Z,22.65
2019-04-05T02:50:28.582Z,18.87
2019-04-05T02:53:02.077Z,20.48
2019-04-05T02:55:33.136Z,21.17
2019-04-05T02:58:04.534Z,23.55
2019-04-05T03:00:35.186Z,25.45
2019-04-05T03:03:06.943Z,25.12
2019-04-05T03:05:38.466Z,25.27
2019-04-05T03:08:08.925Z,25.12
2019-04-05T03:11:04.721Z,27.55
2019-04-05T03:13:38.986Z,29.27
2019-04-05T03:16:13.918Z,27.67
2019-04-05T03:18:48.525Z,30.50
2019-04-05T03:21:22.575Z,24.40
2019-04-05T03:23:57.577Z,25.82
2019-04-05T03:26:31.343Z,22.95
2019-04-05T03:29:05.088Z,27.80
2019-04-05T03:31:35.904Z,25.20
2019-04-05T03:34:07.204Z,22.27
2019-04-05T03:36:39.833Z,24.23
2019-04-05T03:39:11.335Z,19.67
2019-04-05T03:41:41.894Z,18.23
2019-04-05T03:44:12.349Z,20.27
2019-04-05T03:46:55.214Z,19.48
2019-04-05T03:49:15.785Z,22.10
2019-04-05T03:51:46.279Z,24.10
2019-04-05T03:54:16.767Z,23.83
2019-04-05T03:56:47.734Z,21.63
2019-04-05T03:59:19.634Z,23.02
2019-04-05T04:01:50.330Z,19.95
2019-04-05T04:04:21.050Z,20.37
2019-04-05T04:06:51.517Z,20.07
2019-04-05T04:09:22.401Z,21.30
2019-04-05T04:11:53.710Z,20.65
2019-04-05T04:14:24.795Z,21.20
2019-04-05T04:17:10.959Z,20.82
2019-04-05T04:19:29.025Z,22.15
2019-04-05T04:22:28.042Z,22.35
2019-04-05T04:24:59.815Z,23.10
2019-04-05T04:27:31.284Z,24.67
2019-04-05T04:30:01.953Z,21.90
2019-04-05T04:32:32.950Z,23.50
2019-04-05T04:35:03.740Z,24.02
2019-04-05T04:37:34.698Z,22.73
2019-04-05T04:40:05.497Z,23.77
2019-04-05T04:42:36.083Z,23.12
2019-04-05T04:45:12.626Z,25.35
2019-04-05T04:47:41.022Z,22.60
2019-04-05T04:50:12.310Z,22.17
2019-04-05T04:52:43.116Z,20.50
2019-04-05T04:55:13.681Z,23.85
2019-04-05T04:57:44.650Z,26.68
2019-04-05T05:00:16.328Z,28.90
2019-04-05T05:02:47.146Z,25.60
2019-04-05T05:05:18.039Z,28.32
2019-04-05T05:07:48.851Z,25.80
2019-04-05T05:10:19.789Z,29.12
2019-04-05T05:12:50.400Z,27.95
2019-04-05T05:15:21.419Z,27.95
2019-04-05T05:17:58.488Z,28.27
2019-04-05T05:20:24.726Z,31.35
2019-04-05T05:22:55.377Z,29.07
2019-04-05T05:25:25.920Z,27.73
2019-04-05T05:27:56.665Z,26.07
2019-04-05T05:30:27.509Z,27.70
2019-04-05T05:32:59.424Z,28.32
2019-04-05T05:35:30.234Z,24.43
2019-04-05T05:38:00.838Z,21.97
2019-04-05T05:40:35.275Z,23.27
2019-04-05T05:43:03.479Z,23.52
2019-04-05T05:45:33.977Z,24.65
2019-04-05T05:48:04.505Z,23.77
2019-04-05T05:50:36.205Z,22.05
2019-04-05T05:53:06.717Z,19.80
2019-04-05T05:55:37.167Z,21.85
2019-04-05T05:58:07.612Z,20.27
2019-04-05T06:00:38.129Z,20.52
2019-04-05T06:03:11.236Z,23.18
2019-04-05T06:05:41.540Z,22.70
2019-04-05T06:08:12.040Z,22.85
2019-04-05T06:10:42.613Z,21.35
2019-04-05T06:13:13.078Z,20.27
2019-04-05T06:15:43.555Z,21.05
2019-04-05T06:18:14.164Z,18.50
2019-04-05T06:20:44.729Z,20.82
2019-04-05T06:23:15.322Z,20.90
2019-04-05T06:25:45.838Z,19.75
2019-04-05T06:28:16.305Z,21.63
2019-04-05T06:30:47.001Z,26.62
2019-04-05T06:33:30.678Z,26.77
2019-04-05T06:35:49.828Z,21.80
2019-04-05T06:38:20.772Z,22.10
2019-04-05T06:40:51.300Z,21.63
2019-04-05T06:43:21.922Z,22.02
2019-04-05T06:45:52.635Z,21.13
2019-04-05T06:48:23.373Z,24.25
2019-04-05T06:50:53.996Z,23.55
2019-04-05T06:53:24.903Z,25.10
2019-04-05T06:55:55.358Z,26.75
2019-04-05T06:58:29.010Z,26.33
2019-04-05T07:00:58.233Z,25.37
2019-04-05T07:03:28.728Z,24.27
2019-04-05T07:05:59.221Z,24.18
2019-04-05T07:08:29.703Z,24.05
2019-04-05T07:11:00.252Z,24.32
2019-04-05T07:13:30.738Z,25.45
2019-04-05T07:16:01.198Z,23.90
2019-04-05T07:18:35.975Z,24.37
2019-04-05T07:21:04.577Z,23.47
2019-04-05T07:23:35.192Z,22.77
2019-04-05T07:26:05.816Z,22.00
2019-04-05T07:28:36.309Z,20.48
2019-04-05T07:31:06.839Z,20.73
2019-04-05T07:33:37.284Z,20.90
2019-04-05T07:36:07.844Z,18.73
2019-04-05T07:38:38.478Z,16.77
2019-04-05T07:41:09.084Z,16.85
2019-04-05T07:43:40.174Z,16.10
2019-04-05T07:46:10.734Z,16.17
2019-04-05T07:48:44.974Z,16.20
2019-04-05T07:51:13.762Z,14.45
2019-04-05T07:53:44.312Z,14.00
2019-04-05T07:56:14.923Z,12.60
2019-04-05T07:58:53.765Z,12.35
2019-04-05T08:01:24.252Z,11.30
2019-04-05T08:03:54.752Z,11.65
2019-04-05T08:06:26.411Z,11.65
2019-04-05T08:09:02.388Z,11.03
2019-04-05T08:11:35.528Z,10.65
2019-04-05T08:14:06.180Z,10.95
2019-04-05T08:16:36.650Z,11.22
2019-04-05T08:19:07.117Z,12.55
2019-04-05T08:21:37.609Z,12.23
2019-04-05T08:24:08.450Z,12.45
2019-04-05T08:26:39.088Z,9.68
2019-04-05T08:29:09.575Z,9.80
2019-04-05T08:31:40.099Z,9.88
2019-04-05T08:34:10.600Z,10.13
2019-04-05T08:36:41.124Z,10.55
2019-04-05T08:39:11.704Z,10.58
2019-04-05T08:41:42.165Z,11.47
2019-04-05T08:44:12.658Z,10.70
2019-04-05T08:46:43.143Z,9.58
2019-04-05T08:49:13.636Z,9.13
2019-04-05T08:51:44.130Z,9.13
2019-04-05T08:54:14.617Z,9.33
2019-04-05T08:56:45.175Z,10.15
2019-04-05T08:59:15.654Z,10.13
2019-04-05T09:01:46.125Z,10.00
2019-04-05T09:04:16.944Z,10.15
2019-04-05T09:06:47.726Z,9.93
2019-04-05T09:09:18.209Z,9.65
2019-04-05T09:11:48.792Z,9.98
2019-04-05T09:14:20.843Z,9.28
2019-04-05T09:16:51.666Z,8.55
2019-04-05T09:19:23.922Z,8.00
2019-04-05T09:21:54.730Z,8.30
2019-04-05T09:24:25.290Z,6.70
2019-04-05T09:26:56.126Z,7.47
2019-04-05T09:29:26.659Z,6.50
2019-04-05T09:31:57.150Z,6.43
2019-04-05T09:34:27.861Z,6.72
2019-04-05T09:36:58.341Z,7.05
2019-04-05T09:39:29.019Z,7.75
2019-04-05T09:41:59.952Z,7.83
2019-04-05T09:44:30.668Z,7.03
2019-04-05T09:47:01.201Z,7.47
2019-04-05T09:49:37.089Z,7.30
2019-04-05T09:52:04.834Z,6.77
2019-04-05T09:54:35.839Z,7.08
2019-04-05T09:57:06.699Z,6.83
2019-04-05T09:59:37.788Z,6.50
2019-04-05T10:02:08.750Z,6.40
2019-04-05T10:04:39.353Z,5.80
2019-04-05T10:07:09.978Z,5.35
2019-04-05T10:09:40.479Z,5.67
2019-04-05T10:12:11.070Z,5.90
2019-04-05T10:14:41.604Z,5.40
2019-04-05T10:17:12.953Z,5.30
2019-04-05T10:19:49.916Z,6.08
2019-04-05T10:22:16.010Z,5.08
2019-04-05T10:24:46.521Z,5.50
2019-04-05T10:27:17.188Z,4.72
2019-04-05T10:29:49.489Z,4.83
2019-04-05T10:32:20.161Z,5.20
2019-04-05T10:34:51.082Z,5.17
2019-04-05T10:37:21.540Z,5.90
2019-04-05T10:39:52.147Z,5.70
2019-04-05T10:42:31.615Z,5.65
2019-04-05T10:45:03.119Z,6.00
2019-04-05T10:47:33.666Z,6.07
2019-04-05T10:50:05.438Z,5.42
2019-04-05T10:52:35.931Z,5.28
2019-04-05T10:55:07.110Z,5.28
2019-04-05T10:57:37.671Z,4.80
2019-04-05T11:00:11.146Z,4.53
2019-04-05T11:02:41.594Z,4.00
2019-04-05T11:05:13.130Z,3.90
2019-04-05T11:07:44.322Z,3.83
2019-04-05T11:10:15.421Z,3.22
2019-04-05T11:12:49.740Z,3.72
2019-04-05T11:15:19.966Z,3.72
2019-04-05T11:17:50.569Z,2.90
2019-04-05T11:20:22.078Z,3.20
2019-04-05T11:22:52.884Z,3.50
2019-04-05T11:25:23.633Z,3.27
2019-04-05T11:27:54.133Z,3.10
2019-04-05T11:30:40.632Z,3.10
2019-04-05T11:33:11.454Z,3.67
2019-04-05T11:35:42.888Z,3.70
2019-04-05T11:38:15.261Z,3.70
2019-04-05T11:40:47.467Z,3.62
2019-04-05T11:43:19.095Z,4.17
2019-04-05T11:45:50.808Z,3.95
2019-04-05T11:48:22.333Z,3.77
2019-04-05T11:50:52.857Z,3.30
2019-04-05T11:53:23.308Z,3.33
2019-04-05T11:55:53.928Z,3.80
2019-04-05T11:58:24.523Z,4.22
2019-04-05T12:01:14.122Z,4.03
2019-04-05T12:03:44.723Z,3.92
2019-04-05T12:06:15.251Z,3.30
2019-04-05T12:08:45.697Z,3.42
2019-04-05T12:11:16.250Z,3.80
2019-04-05T12:13:47.734Z,3.30
2019-04-05T12:16:18.408Z,2.67
2019-04-05T12:18:49.007Z,3.00
2019-04-05T12:21:21.038Z,2.70
2019-04-05T12:23:52.329Z,2.77
2019-04-05T12:26:22.808Z,2.80
2019-04-05T12:28:53.264Z,2.43
2019-04-05T12:31:24.821Z,2.50
2019-04-05T12:33:56.324Z,4.15
2019-04-05T12:36:26.783Z,3.63
2019-04-05T12:38:57.330Z,3.72
2019-04-05T12:41:27.885Z,3.70
2019-04-05T12:43:58.388Z,3.77
2019-04-05T12:46:29.070Z,3.65
2019-04-05T12:49:00.222Z,3.60
2019-04-05T12:51:31.003Z,4.00
2019-04-05T12:54:01.953Z,3.77
2019-04-05T12:56:32.404Z,4.15
2019-04-05T12:59:02.917Z,4.20
2019-04-05T13:01:33.356Z,4.28
2019-04-05T13:04:03.872Z,4.40
2019-04-05T13:06:35.425Z,3.77
2019-04-05T13:09:08.755Z,3.95
2019-04-05T13:11:39.582Z,3.87
2019-04-05T13:14:10.140Z,4.28
2019-04-05T13:16:40.943Z,4.25
2019-04-05T13:19:11.581Z,4.72
2019-04-05T13:21:42.063Z,4.72
2019-04-05T13:24:12.798Z,5.00
2019-04-05T13:26:43.252Z,4.80
2019-04-05T13:29:13.781Z,5.28
2019-04-05T13:31:44.271Z,5.22
2019-04-05T13:34:14.798Z,4.78
2019-04-05T13:36:45.286Z,4.50
2019-04-05T13:39:15.905Z,4.67
2019-04-05T13:41:46.413Z,4.40
2019-04-05T13:44:17.029Z,5.40
2019-04-05T13:46:47.502Z,5.28
2019-04-05T13:49:18.423Z,4.75
2019-04-05T13:51:48.907Z,4.67
2019-04-05T13:54:19.460Z,4.33
2019-04-05T13:56:51.202Z,4.55
2019-04-05T13:59:21.682Z,4.00
2019-04-05T14:02:05.374Z,4.12
2019-04-05T14:04:25.038Z,3.85
2019-04-05T14:06:55.875Z,3.77
2019-04-05T14:09:26.407Z,3.92
2019-04-05T14:11:56.981Z,3.75
2019-04-05T14:14:28.495Z,3.60
2019-04-05T14:16:59.154Z,3.40
2019-04-05T14:19:29.755Z,3.00
2019-04-05T14:22:08.318Z,3.40
2019-04-05T14:24:32.464Z,3.50
2019-04-05T14:27:03.879Z,3.33
2019-04-05T14:29:34.531Z,3.47
2019-04-05T14:32:19.829Z,3.25
2019-04-05T14:34:37.440Z,3.52
2019-04-05T14:37:08.028Z,3.90
2019-04-05T14:39:38.538Z,3.42
2019-04-05T14:42:10.375Z,3.55
2019-04-05T14:44:41.397Z,4.22
2019-04-05T14:47:11.848Z,3.50
2019-04-05T14:49:42.301Z,3.50
2019-04-05T14:52:12.881Z,4.05
2019-04-05T14:54:43.808Z,4.08
2019-04-05T14:57:15.355Z,3.80
2019-04-05T14:59:46.011Z,3.45
2019-04-05T15:02:16.609Z,3.45
2019-04-05T15:04:49.312Z,3.30
2019-04-05T15:07:20.934Z,3.25
2019-04-05T15:09:54.662Z,3.67
2019-04-05T15:12:23.892Z,3.95
2019-04-05T15:14:54.632Z,3.50
2019-04-05T15:17:25.127Z,3.40
2019-04-05T15:19:55.569Z,3.90
2019-04-05T15:22:27.649Z,3.60
2019-04-05T15:24:58.435Z,3.72
2019-04-05T15:27:28.924Z,3.37
2019-04-05T15:29:59.681Z,3.30
2019-04-05T15:32:31.671Z,3.33
2019-04-05T15:35:02.509Z,3.33
2019-04-05T15:37:33.038Z,3.03
2019-04-05T15:40:04.059Z,3.98
2019-04-05T15:42:34.659Z,3.20
2019-04-05T15:45:08.160Z,2.87
2019-04-05T15:47:38.693Z,3.30
2019-04-05T15:50:09.358Z,3.00
2019-04-05T15:52:40.004Z,3.02
2019-04-05T15:55:10.644Z,2.80
2019-04-05T15:57:41.241Z,2.93
2019-04-05T16:00:13.461Z,2.87
2019-04-05T16:02:44.039Z,3.00
2019-04-05T16:05:14.877Z,2.90
2019-04-05T16:07:45.369Z,2.80
2019-04-05T16:10:16.246Z,2.80
2019-04-05T16:12:46.787Z,3.00
2019-04-05T16:15:18.376Z,2.90
2019-04-05T16:17:48.974Z,3.00
2019-04-05T16:20:19.867Z,2.80
2019-04-05T16:22:50.516Z,3.02
2019-04-05T16:25:21.149Z,3.50
2019-04-05T16:27:51.708Z,3.20
2019-04-05T16:30:23.030Z,3.33
2019-04-05T16:32:53.553Z,3.17
2019-04-05T16:35:24.005Z,3.25
2019-04-05T16:37:54.507Z,3.50
2019-04-05T16:40:25.360Z,3.20
2019-04-05T16:43:02.380Z,3.25
2019-04-05T16:45:28.785Z,3.77
2019-04-05T16:47:59.345Z,5.10
2019-04-05T16:50:29.902Z,3.70
2019-04-05T16:53:00.441Z,8.03
2019-04-05T16:55:30.904Z,3.50
2019-04-05T16:58:01.617Z,3.15
2019-04-05T17:00:32.329Z,4.53
2019-04-05T17:03:02.875Z,3.90
2019-04-05T17:05:33.305Z,3.40
2019-04-05T17:08:04.263Z,3.20
2019-04-05T17:10:34.833Z,13.93
2019-04-05T17:13:05.534Z,9.53
2019-04-05T17:15:36.046Z,5.78
2019-04-05T17:18:08.280Z,7.28
2019-04-05T17:20:38.730Z,4.50
2019-04-05T17:23:09.178Z,3.55
2019-04-05T17:25:40.130Z,3.77
2019-04-05T17:28:11.213Z,4.87
2019-04-05T17:30:41.726Z,3.65
2019-04-05T17:33:12.209Z,3.42
2019-04-05T17:35:42.688Z,3.40
2019-04-05T17:38:13.132Z,3.80
2019-04-05T17:40:43.617Z,3.60
2019-04-05T17:43:14.070Z,3.25
2019-04-05T17:45:44.541Z,3.40
2019-04-05T17:48:15.057Z,3.25
2019-04-05T17:50:45.557Z,3.52
2019-04-05T17:53:17.225Z,3.20
2019-04-05T17:55:48.052Z,3.60
2019-04-05T17:58:18.939Z,3.35
2019-04-05T18:00:49.541Z,3.90
2019-04-05T18:03:20.101Z,3.55
2019-04-05T18:05:52.050Z,3.37
2019-04-05T18:08:23.320Z,3.30
2019-04-05T18:10:54.158Z,3.35
2019-04-05T18:13:24.757Z,3.52
2019-04-05T18:15:55.277Z,3.55
2019-04-05T18:18:25.741Z,3.45
2019-04-05T18:20:57.346Z,3.55
2019-04-05T18:23:27.851Z,3.52
2019-04-05T18:26:01.292Z,3.70
2019-04-05T18:28:31.778Z,3.70
2019-04-05T18:31:02.821Z,3.77
2019-04-05T18:33:33.508Z,3.70
2019-04-05T18:36:03.983Z,3.37
2019-04-05T18:38:34.598Z,3.58
2019-04-05T18:41:05.035Z,3.80
2019-04-05T18:43:35.713Z,3.60
2019-04-05T18:46:06.344Z,3.92
2019-04-05T18:48:36.923Z,3.67
2019-04-05T18:51:07.380Z,3.90
2019-04-05T18:53:38.319Z,4.10
2019-04-05T18:56:09.862Z,3.75
2019-04-05T18:58:40.326Z,3.90
2019-04-05T19:01:10.889Z,3.90
2019-04-05T19:03:41.745Z,4.33
2019-04-05T19:06:12.204Z,4.30
2019-04-05T19:08:43.104Z,4.40
2019-04-05T19:11:14.648Z,4.42
2019-04-05T19:13:45.279Z,4.30
2019-04-05T19:16:16.087Z,4.85
2019-04-05T19:18:46.644Z,5.67
2019-04-05T19:21:17.204Z,5.50
2019-04-05T19:23:51.039Z,5.30
2019-04-05T19:26:19.913Z,5.20
2019-04-05T19:28:50.373Z,5.37
2019-04-05T19:49:08.972Z,6.42
2019-04-05T19:51:40.612Z,6.47
2019-04-05T19:54:11.079Z,6.70
2019-04-05T19:56:41.848Z,7.25
2019-04-05T19:59:12.303Z,7.35
2019-04-05T20:01:42.805Z,7.58
2019-04-05T20:04:13.377Z,7.28
2019-04-05T20:06:43.840Z,7.72
2019-04-05T20:09:14.934Z,7.20
2019-04-05T20:11:45.488Z,7.35
2019-04-05T20:14:16.388Z,7.97
2019-04-05T20:16:46.826Z,7.72
2019-04-05T20:19:17.349Z,7.58
2019-04-05T20:21:47.809Z,7.53
2019-04-05T20:24:18.760Z,7.78
2019-04-05T20:26:49.241Z,8.38
2019-04-05T20:29:21.640Z,7.75
2019-04-05T20:31:51.927Z,7.60
2019-04-05T20:34:23.451Z,8.30
2019-04-05T20:36:54.891Z,8.60
2019-04-05T20:39:25.646Z,8.18
2019-04-05T20:41:56.435Z,7.92
2019-04-05T20:44:27.354Z,8.47
2019-04-05T20:46:57.952Z,8.10
2019-04-05T20:49:28.409Z,9.00
2019-04-05T20:51:58.861Z,8.83
2019-04-05T20:54:29.457Z,9.05
2019-04-05T20:56:59.929Z,8.58
2019-04-05T20:59:30.410Z,8.38
2019-04-05T21:02:01.176Z,8.85
2019-04-05T21:04:31.658Z,8.13
2019-04-05T21:07:02.129Z,8.48
2019-04-05T21:09:32.892Z,8.15
2019-04-05T21:12:03.450Z,8.70
2019-04-05T21:14:34.028Z,8.93
2019-04-05T21:17:04.859Z,8.90
2019-04-05T21:19:35.339Z,8.75
2019-04-05T21:22:05.809Z,9.08
2019-04-05T21:24:36.590Z,8.10
2019-04-05T21:27:07.133Z,9.48
2019-04-05T21:29:37.729Z,8.70
2019-04-05T21:32:08.756Z,8.53
2019-04-05T21:34:39.289Z,9.50
2019-04-05T21:37:10.089Z,8.13
2019-04-05T21:39:40.553Z,8.85
2019-04-05T21:42:11.089Z,9.67
2019-04-05T21:44:41.576Z,9.05
2019-04-05T21:47:12.135Z,8.55
2019-04-05T21:49:42.626Z,9.83
2019-04-05T21:52:13.091Z,9.33
2019-04-05T21:54:47.843Z,9.33
2019-04-05T21:57:15.674Z,9.50
2019-04-05T21:59:46.211Z,10.30
2019-04-05T22:02:16.844Z,9.45
2019-04-05T22:04:47.658Z,9.08
2019-04-05T22:07:18.474Z,9.97
2019-04-05T22:09:48.932Z,11.53
2019-04-05T22:12:19.395Z,10.80
2019-04-05T22:14:49.922Z,11.60
2019-04-05T22:17:20.377Z,13.53
2019-04-05T22:19:50.841Z,12.25
2019-04-05T22:22:21.337Z,14.00
2019-04-05T22:24:59.185Z,12.53
2019-04-05T22:27:24.370Z,11.93
2019-04-05T22:29:54.851Z,11.93
2019-04-05T22:32:25.301Z,11.25
2019-04-05T22:34:55.873Z,12.83
2019-04-05T22:37:26.458Z,12.53
2019-04-05T22:39:56.917Z,12.43
2019-04-05T22:42:27.353Z,13.08
2019-04-05T22:44:57.886Z,12.75
2019-04-05T22:47:29.123Z,13.10
2019-04-05T22:49:59.640Z,12.75
2019-04-05T22:52:31.196Z,12.07
2019-04-05T22:55:10.553Z,11.80
2019-04-05T22:57:33.870Z,12.58
2019-04-05T23:00:04.808Z,12.13
2019-04-05T23:02:37.020Z,13.10
2019-04-05T23:05:07.706Z,13.13
2019-04-05T23:07:38.227Z,13.80
2019-04-05T23:10:09.940Z,12.93
2019-04-05T23:12:40.425Z,12.00
2019-04-05T23:15:11.126Z,11.22
2019-04-05T23:17:41.600Z,11.12
2019-04-05T23:20:12.650Z,13.55
2019-04-05T23:22:43.481Z,12.95
2019-04-05T23:25:21.742Z,11.55
2019-04-05T23:27:47.099Z,12.28
2019-04-05T23:30:18.759Z,11.57
2019-04-05T23:32:49.324Z,12.70
2019-04-05T23:35:20.132Z,11.68
2019-04-05T23:37:50.617Z,13.20
2019-04-05T23:40:21.102Z,12.10
2019-04-05T23:42:51.603Z,12.03
2019-04-05T23:45:22.182Z,11.70
2019-04-05T23:47:53.136Z,12.73
2019-04-05T23:50:23.599Z,12.78
2019-04-05T23:52:54.112Z,13.85
2019-04-05T23:55:33.096Z,11.70
2019-04-05T23:57:59.552Z,13.95
